sensor_id;sensor_type;location;lat;lon;timestamp;pressure;altitude;pressure_sealevel;temperature
70050;BMP180;57391;51.306;22.680;2023-02-03T00:11:25;99705.60;;;0.70
70050;BMP180;57391;51.306;22.680;2023-02-03T00:28:00;99737.40;;;0.60
70050;BMP180;57391;51.306;22.680;2023-02-03T00:30:28;99739.40;;;0.60
70050;BMP180;57391;51.306;22.680;2023-02-03T00:32:55;99735.80;;;0.60
70050;BMP180;57391;51.306;22.680;2023-02-03T00:35:23;99745.60;;;0.60
70050;BMP180;57391;51.306;22.680;2023-02-03T00:37:52;99748.40;;;0.60
70050;BMP180;57391;51.306;22.680;2023-02-03T00:40:24;99731.80;;;0.50
70050;BMP180;57391;51.306;22.680;2023-02-03T00:42:52;99728.00;;;0.50
70050;BMP180;57391;51.306;22.680;2023-02-03T00:45:20;99725.80;;;0.50
70050;BMP180;57391;51.306;22.680;2023-02-03T00:47:47;99727.60;;;0.50
70050;BMP180;57391;51.306;22.680;2023-02-03T00:50:15;99734.00;;;0.50
70050;BMP180;57391;51.306;22.680;2023-02-03T00:52:42;99741.80;;;0.50
70050;BMP180;57391;51.306;22.680;2023-02-03T00:55:09;99749.60;;;0.50
70050;BMP180;57391;51.306;22.680;2023-02-03T00:57:36;99743.40;;;0.50
70050;BMP180;57391;51.306;22.680;2023-02-03T01:00:05;99745.40;;;0.50
70050;BMP180;57391;51.306;22.680;2023-02-03T01:02:35;99748.40;;;0.48
70050;BMP180;57391;51.306;22.680;2023-02-03T01:05:03;99745.00;;;0.40
70050;BMP180;57391;51.306;22.680;2023-02-03T01:07:31;99744.80;;;0.40
70050;BMP180;57391;51.306;22.680;2023-02-03T01:09:58;99745.00;;;0.40
70050;BMP180;57391;51.306;22.680;2023-02-03T01:12:29;99745.20;;;0.40
70050;BMP180;57391;51.306;22.680;2023-02-03T01:14:56;99748.40;;;0.38
70050;BMP180;57391;51.306;22.680;2023-02-03T01:17:24;99751.40;;;0.34
70050;BMP180;57391;51.306;22.680;2023-02-03T01:19:52;99754.60;;;0.34
70050;BMP180;57391;51.306;22.680;2023-02-03T01:22:19;99752.00;;;0.30
70050;BMP180;57391;51.306;22.680;2023-02-03T01:24:46;99755.80;;;0.30
70050;BMP180;57391;51.306;22.680;2023-02-03T01:27:13;99756.60;;;0.30
70050;BMP180;57391;51.306;22.680;2023-02-03T01:29:40;99760.00;;;0.30
70050;BMP180;57391;51.306;22.680;2023-02-03T01:32:07;99764.80;;;0.30
70050;BMP180;57391;51.306;22.680;2023-02-03T01:34:35;99763.60;;;0.30
70050;BMP180;57391;51.306;22.680;2023-02-03T01:37:02;99766.60;;;0.30
70050;BMP180;57391;51.306;22.680;2023-02-03T01:39:29;99765.20;;;0.30
70050;BMP180;57391;51.306;22.680;2023-02-03T01:41:56;99766.40;;;0.30
70050;BMP180;57391;51.306;22.680;2023-02-03T01:50:34;99762.00;;;0.30
70050;BMP180;57391;51.306;22.680;2023-02-03T01:53:09;99761.20;;;0.30
70050;BMP180;57391;51.306;22.680;2023-02-03T01:55:44;99756.60;;;0.30
70050;BMP180;57391;51.306;22.680;2023-02-03T01:58:22;99753.40;;;0.30
70050;BMP180;57391;51.306;22.680;2023-02-03T02:00:52;99749.00;;;0.30
70050;BMP180;57391;51.306;22.680;2023-02-03T02:03:28;99745.60;;;0.30
70050;BMP180;57391;51.306;22.680;2023-02-03T02:06:08;99746.40;;;0.30
70050;BMP180;57391;51.306;22.680;2023-02-03T02:08:37;99752.80;;;0.30
70050;BMP180;57391;51.306;22.680;2023-02-03T02:11:06;99754.60;;;0.28
70050;BMP180;57391;51.306;22.680;2023-02-03T02:13:35;99758.20;;;0.30
70050;BMP180;57391;51.306;22.680;2023-02-03T02:16:17;99754.40;;;0.30
70050;BMP180;57391;51.306;22.680;2023-02-03T02:22:50;99751.60;;;0.20
70050;BMP180;57391;51.306;22.680;2023-02-03T02:28:37;99758.00;;;0.20
70050;BMP180;57391;51.306;22.680;2023-02-03T02:34:04;99759.60;;;0.12
70050;BMP180;57391;51.306;22.680;2023-02-03T02:39:42;99759.20;;;0.10
70050;BMP180;57391;51.306;22.680;2023-02-03T02:42:25;99764.00;;;0.12
70050;BMP180;57391;51.306;22.680;2023-02-03T02:45:14;99768.80;;;0.20
70050;BMP180;57391;51.306;22.680;2023-02-03T02:47:43;99768.80;;;0.20
70050;BMP180;57391;51.306;22.680;2023-02-03T02:50:22;99769.80;;;0.20
70050;BMP180;57391;51.306;22.680;2023-02-03T02:52:52;99770.00;;;0.20
70050;BMP180;57391;51.306;22.680;2023-02-03T02:55:25;99767.60;;;0.20
70050;BMP180;57391;51.306;22.680;2023-02-03T02:58:01;99768.80;;;0.24
70050;BMP180;57391;51.306;22.680;2023-02-03T03:00:31;99768.80;;;0.30
70050;BMP180;57391;51.306;22.680;2023-02-03T03:03:20;99771.00;;;0.30
70050;BMP180;57391;51.306;22.680;2023-02-03T03:06:09;99773.00;;;0.30
70050;BMP180;57391;51.306;22.680;2023-02-03T03:08:59;99778.20;;;0.30
70050;BMP180;57391;51.306;22.680;2023-02-03T03:11:34;99778.60;;;0.30
70050;BMP180;57391;51.306;22.680;2023-02-03T03:14:06;99778.60;;;0.30
70050;BMP180;57391;51.306;22.680;2023-02-03T03:16:37;99778.40;;;0.30
70050;BMP180;57391;51.306;22.680;2023-02-03T03:19:21;99784.00;;;0.32
70050;BMP180;57391;51.306;22.680;2023-02-03T03:21:58;99780.40;;;0.32
70050;BMP180;57391;51.306;22.680;2023-02-03T03:24:33;99781.00;;;0.30
70050;BMP180;57391;51.306;22.680;2023-02-03T03:27:13;99773.60;;;0.32
70050;BMP180;57391;51.306;22.680;2023-02-03T03:29:59;99778.20;;;0.32
70050;BMP180;57391;51.306;22.680;2023-02-03T03:32:28;99775.80;;;0.32
70050;BMP180;57391;51.306;22.680;2023-02-03T03:35:00;99779.60;;;0.30
70050;BMP180;57391;51.306;22.680;2023-02-03T03:40:11;99771.40;;;0.38
70050;BMP180;57391;51.306;22.680;2023-02-03T03:42:49;99771.00;;;0.40
70050;BMP180;57391;51.306;22.680;2023-02-03T03:48:10;99773.00;;;0.40
70050;BMP180;57391;51.306;22.680;2023-02-03T03:50:45;99779.40;;;0.40
70050;BMP180;57391;51.306;22.680;2023-02-03T03:53:16;99779.40;;;0.40
70050;BMP180;57391;51.306;22.680;2023-02-03T03:55:50;99781.00;;;0.40
70050;BMP180;57391;51.306;22.680;2023-02-03T03:58:27;99775.40;;;0.48
70050;BMP180;57391;51.306;22.680;2023-02-03T04:01:00;99779.80;;;0.48
70050;BMP180;57391;51.306;22.680;2023-02-03T04:06:10;99785.80;;;0.48
70050;BMP180;57391;51.306;22.680;2023-02-03T04:08:37;99788.20;;;0.50
70050;BMP180;57391;51.306;22.680;2023-02-03T04:11:06;99789.20;;;0.50
70050;BMP180;57391;51.306;22.680;2023-02-03T04:13:32;99787.80;;;0.50
70050;BMP180;57391;51.306;22.680;2023-02-03T04:16:00;99791.40;;;0.50
70050;BMP180;57391;51.306;22.680;2023-02-03T04:18:26;99792.40;;;0.50
70050;BMP180;57391;51.306;22.680;2023-02-03T04:20:54;99791.40;;;0.50
70050;BMP180;57391;51.306;22.680;2023-02-03T04:23:21;99787.80;;;0.50
70050;BMP180;57391;51.306;22.680;2023-02-03T04:25:48;99788.40;;;0.50
70050;BMP180;57391;51.306;22.680;2023-02-03T04:28:15;99792.60;;;0.46
70050;BMP180;57391;51.306;22.680;2023-02-03T04:30:42;99790.80;;;0.48
70050;BMP180;57391;51.306;22.680;2023-02-03T04:33:09;99794.60;;;0.48
70050;BMP180;57391;51.306;22.680;2023-02-03T04:35:36;99792.40;;;0.48
70050;BMP180;57391;51.306;22.680;2023-02-03T04:38:03;99794.20;;;0.50
70050;BMP180;57391;51.306;22.680;2023-02-03T04:40:30;99787.40;;;0.42
70050;BMP180;57391;51.306;22.680;2023-02-03T04:42:57;99794.60;;;0.40
70050;BMP180;57391;51.306;22.680;2023-02-03T04:45:24;99796.20;;;0.40
70050;BMP180;57391;51.306;22.680;2023-02-03T04:47:51;99793.60;;;0.44
70050;BMP180;57391;51.306;22.680;2023-02-03T04:50:19;99789.80;;;0.40
70050;BMP180;57391;51.306;22.680;2023-02-03T04:52:47;99791.60;;;0.40
70050;BMP180;57391;51.306;22.680;2023-02-03T04:55:14;99791.40;;;0.40
70050;BMP180;57391;51.306;22.680;2023-02-03T04:57:41;99789.40;;;0.40
70050;BMP180;57391;51.306;22.680;2023-02-03T05:00:09;99793.00;;;0.40
70050;BMP180;57391;51.306;22.680;2023-02-03T05:02:36;99796.20;;;0.40
70050;BMP180;57391;51.306;22.680;2023-02-03T05:05:04;99804.60;;;0.40
70050;BMP180;57391;51.306;22.680;2023-02-03T05:07:31;99804.60;;;0.42
70050;BMP180;57391;51.306;22.680;2023-02-03T05:09:58;99798.60;;;0.44
70050;BMP180;57391;51.306;22.680;2023-02-03T05:12:25;99803.00;;;0.44
70050;BMP180;57391;51.306;22.680;2023-02-03T05:14:52;99806.40;;;0.44
70050;BMP180;57391;51.306;22.680;2023-02-03T05:17:20;99809.20;;;0.40
70050;BMP180;57391;51.306;22.680;2023-02-03T05:19:46;99807.60;;;0.42
70050;BMP180;57391;51.306;22.680;2023-02-03T05:22:13;99812.40;;;0.46
70050;BMP180;57391;51.306;22.680;2023-02-03T05:24:40;99811.40;;;0.48
70050;BMP180;57391;51.306;22.680;2023-02-03T05:27:07;99814.80;;;0.50
70050;BMP180;57391;51.306;22.680;2023-02-03T05:29:34;99821.40;;;0.50
70050;BMP180;57391;51.306;22.680;2023-02-03T05:32:01;99817.40;;;0.46
70050;BMP180;57391;51.306;22.680;2023-02-03T05:34:29;99816.60;;;0.48
70050;BMP180;57391;51.306;22.680;2023-02-03T05:36:56;99823.60;;;0.50
70050;BMP180;57391;51.306;22.680;2023-02-03T05:39:23;99820.40;;;0.48
70050;BMP180;57391;51.306;22.680;2023-02-03T05:41:50;99821.20;;;0.42
70050;BMP180;57391;51.306;22.680;2023-02-03T05:44:23;99814.40;;;0.40
70050;BMP180;57391;51.306;22.680;2023-02-03T05:46:57;99822.20;;;0.42
70050;BMP180;57391;51.306;22.680;2023-02-03T05:49:24;99819.40;;;0.40
70050;BMP180;57391;51.306;22.680;2023-02-03T05:51:53;99816.80;;;0.40
70050;BMP180;57391;51.306;22.680;2023-02-03T05:54:22;99818.80;;;0.40
70050;BMP180;57391;51.306;22.680;2023-02-03T05:56:48;99819.40;;;0.40
70050;BMP180;57391;51.306;22.680;2023-02-03T05:59:16;99821.60;;;0.40
70050;BMP180;57391;51.306;22.680;2023-02-03T06:01:43;99823.40;;;0.40
70050;BMP180;57391;51.306;22.680;2023-02-03T06:04:10;99827.60;;;0.40
70050;BMP180;57391;51.306;22.680;2023-02-03T06:06:37;99825.00;;;0.40
70050;BMP180;57391;51.306;22.680;2023-02-03T06:09:07;99824.20;;;0.40
70050;BMP180;57391;51.306;22.680;2023-02-03T06:11:35;99828.20;;;0.38
70050;BMP180;57391;51.306;22.680;2023-02-03T06:14:03;99825.20;;;0.38
70050;BMP180;57391;51.306;22.680;2023-02-03T06:16:30;99824.80;;;0.38
70050;BMP180;57391;51.306;22.680;2023-02-03T06:18:57;99826.80;;;0.40
70050;BMP180;57391;51.306;22.680;2023-02-03T06:21:25;99821.40;;;0.40
70050;BMP180;57391;51.306;22.680;2023-02-03T06:23:53;99818.80;;;0.38
70050;BMP180;57391;51.306;22.680;2023-02-03T06:26:21;99824.60;;;0.40
70050;BMP180;57391;51.306;22.680;2023-02-03T06:28:48;99826.60;;;0.40
70050;BMP180;57391;51.306;22.680;2023-02-03T06:31:15;99827.20;;;0.40
70050;BMP180;57391;51.306;22.680;2023-02-03T06:33:42;99825.80;;;0.40
70050;BMP180;57391;51.306;22.680;2023-02-03T06:36:10;99823.00;;;0.48
70050;BMP180;57391;51.306;22.680;2023-02-03T06:38:36;99824.60;;;0.50
70050;BMP180;57391;51.306;22.680;2023-02-03T06:41:03;99825.80;;;0.50
70050;BMP180;57391;51.306;22.680;2023-02-03T06:43:30;99823.00;;;0.50
70050;BMP180;57391;51.306;22.680;2023-02-03T06:45:58;99816.80;;;0.54
70050;BMP180;57391;51.306;22.680;2023-02-03T06:48:25;99816.80;;;0.60
70050;BMP180;57391;51.306;22.680;2023-02-03T06:50:52;99819.20;;;0.60
70050;BMP180;57391;51.306;22.680;2023-02-03T06:53:19;99820.40;;;0.64
70050;BMP180;57391;51.306;22.680;2023-02-03T06:55:46;99817.00;;;0.62
70050;BMP180;57391;51.306;22.680;2023-02-03T06:58:14;99816.20;;;0.62
70050;BMP180;57391;51.306;22.680;2023-02-03T07:00:42;99817.20;;;0.70
70050;BMP180;57391;51.306;22.680;2023-02-03T07:03:09;99816.60;;;0.70
70050;BMP180;57391;51.306;22.680;2023-02-03T07:05:36;99814.20;;;0.70
70050;BMP180;57391;51.306;22.680;2023-02-03T07:08:03;99809.00;;;0.70
70050;BMP180;57391;51.306;22.680;2023-02-03T07:10:31;99813.60;;;0.70
70050;BMP180;57391;51.306;22.680;2023-02-03T07:13:05;99805.00;;;0.70
70050;BMP180;57391;51.306;22.680;2023-02-03T07:15:33;99812.20;;;0.70
70050;BMP180;57391;51.306;22.680;2023-02-03T07:18:01;99805.00;;;0.70
70050;BMP180;57391;51.306;22.680;2023-02-03T07:20:28;99804.20;;;0.74
70050;BMP180;57391;51.306;22.680;2023-02-03T07:22:56;99806.00;;;0.78
70050;BMP180;57391;51.306;22.680;2023-02-03T07:25:24;99805.00;;;0.80
70050;BMP180;57391;51.306;22.680;2023-02-03T07:27:52;99802.40;;;0.80
70050;BMP180;57391;51.306;22.680;2023-02-03T07:30:20;99802.00;;;0.80
70050;BMP180;57391;51.306;22.680;2023-02-03T07:32:48;99793.20;;;0.80
70050;BMP180;57391;51.306;22.680;2023-02-03T07:35:17;99788.80;;;0.80
70050;BMP180;57391;51.306;22.680;2023-02-03T07:37:44;99786.80;;;0.82
70050;BMP180;57391;51.306;22.680;2023-02-03T07:40:12;99783.60;;;0.82
70050;BMP180;57391;51.306;22.680;2023-02-03T07:42:47;99781.20;;;0.80
70050;BMP180;57391;51.306;22.680;2023-02-03T07:45:16;99777.60;;;0.88
70050;BMP180;57391;51.306;22.680;2023-02-03T07:47:43;99776.80;;;0.90
70050;BMP180;57391;51.306;22.680;2023-02-03T07:50:11;99770.60;;;0.92
70050;BMP180;57391;51.306;22.680;2023-02-03T07:52:38;99775.20;;;1.00
70050;BMP180;57391;51.306;22.680;2023-02-03T07:55:06;99772.00;;;1.00
70050;BMP180;57391;51.306;22.680;2023-02-03T07:57:34;99767.80;;;1.00
70050;BMP180;57391;51.306;22.680;2023-02-03T08:00:02;99767.80;;;1.06
70050;BMP180;57391;51.306;22.680;2023-02-03T08:02:40;99763.80;;;1.10
70050;BMP180;57391;51.306;22.680;2023-02-03T08:05:10;99758.80;;;1.14
70050;BMP180;57391;51.306;22.680;2023-02-03T08:07:38;99758.00;;;1.20
70050;BMP180;57391;51.306;22.680;2023-02-03T08:10:07;99751.20;;;1.30
70050;BMP180;57391;51.306;22.680;2023-02-03T08:12:35;99749.40;;;1.30
70050;BMP180;57391;51.306;22.680;2023-02-03T08:15:03;99756.60;;;1.30
70050;BMP180;57391;51.306;22.680;2023-02-03T08:17:30;99747.40;;;1.40
70050;BMP180;57391;51.306;22.680;2023-02-03T08:19:59;99743.20;;;1.40
70050;BMP180;57391;51.306;22.680;2023-02-03T08:22:26;99745.20;;;1.40
70050;BMP180;57391;51.306;22.680;2023-02-03T08:24:53;99739.80;;;1.44
70050;BMP180;57391;51.306;22.680;2023-02-03T08:27:22;99744.00;;;1.50
70050;BMP180;57391;51.306;22.680;2023-02-03T08:29:50;99734.00;;;1.60
70050;BMP180;57391;51.306;22.680;2023-02-03T08:32:20;99733.00;;;1.70
70050;BMP180;57391;51.306;22.680;2023-02-03T08:34:49;99725.20;;;1.82
70050;BMP180;57391;51.306;22.680;2023-02-03T08:37:21;99724.40;;;1.90
70050;BMP180;57391;51.306;22.680;2023-02-03T08:39:51;99711.40;;;2.00
70050;BMP180;57391;51.306;22.680;2023-02-03T08:42:19;99709.00;;;2.10
70050;BMP180;57391;51.306;22.680;2023-02-03T08:44:46;99706.60;;;2.20
70050;BMP180;57391;51.306;22.680;2023-02-03T08:47:16;99705.60;;;2.34
70050;BMP180;57391;51.306;22.680;2023-02-03T08:49:43;99701.20;;;2.50
70050;BMP180;57391;51.306;22.680;2023-02-03T08:52:12;99690.20;;;2.60
70050;BMP180;57391;51.306;22.680;2023-02-03T08:54:39;99685.00;;;2.70
70050;BMP180;57391;51.306;22.680;2023-02-03T08:57:07;99687.20;;;2.90
70050;BMP180;57391;51.306;22.680;2023-02-03T08:59:37;99680.60;;;3.02
70050;BMP180;57391;51.306;22.680;2023-02-03T09:02:13;99679.00;;;3.16
70050;BMP180;57391;51.306;22.680;2023-02-03T09:04:40;99683.80;;;3.30
70050;BMP180;57391;51.306;22.680;2023-02-03T09:07:07;99694.40;;;3.54
70050;BMP180;57391;51.306;22.680;2023-02-03T09:09:34;99700.20;;;3.80
70050;BMP180;57391;51.306;22.680;2023-02-03T09:12:02;99701.40;;;3.98
70050;BMP180;57391;51.306;22.680;2023-02-03T09:14:32;99701.00;;;3.90
70050;BMP180;57391;51.306;22.680;2023-02-03T09:17:02;99699.80;;;4.00
70050;BMP180;57391;51.306;22.680;2023-02-03T09:19:30;99701.20;;;4.00
70050;BMP180;57391;51.306;22.680;2023-02-03T09:21:57;99701.00;;;3.90
70050;BMP180;57391;51.306;22.680;2023-02-03T09:24:24;99701.20;;;3.80
70050;BMP180;57391;51.306;22.680;2023-02-03T09:26:52;99694.00;;;3.70
70050;BMP180;57391;51.306;22.680;2023-02-03T09:29:19;99692.20;;;3.60
70050;BMP180;57391;51.306;22.680;2023-02-03T09:31:49;99690.60;;;3.50
70050;BMP180;57391;51.306;22.680;2023-02-03T09:34:19;99691.80;;;3.40
70050;BMP180;57391;51.306;22.680;2023-02-03T09:36:47;99692.00;;;3.30
70050;BMP180;57391;51.306;22.680;2023-02-03T09:39:14;99688.40;;;3.20
70050;BMP180;57391;51.306;22.680;2023-02-03T09:47:33;99668.20;;;3.00
70050;BMP180;57391;51.306;22.680;2023-02-03T09:50:11;99665.80;;;2.90
70050;BMP180;57391;51.306;22.680;2023-02-03T09:52:40;99658.20;;;2.90
70050;BMP180;57391;51.306;22.680;2023-02-03T09:55:41;99649.80;;;2.84
70050;BMP180;57391;51.306;22.680;2023-02-03T09:58:18;99642.20;;;2.80
70050;BMP180;57391;51.306;22.680;2023-02-03T10:00:56;99637.80;;;2.80
70050;BMP180;57391;51.306;22.680;2023-02-03T10:06:38;99630.40;;;2.70
70050;BMP180;57391;51.306;22.680;2023-02-03T10:15:45;99606.00;;;2.66
70050;BMP180;57391;51.306;22.680;2023-02-03T10:18:22;99601.20;;;2.80
70050;BMP180;57391;51.306;22.680;2023-02-03T10:21:04;99599.20;;;3.00
70050;BMP180;57391;51.306;22.680;2023-02-03T10:23:39;99596.60;;;3.10
70050;BMP180;57391;51.306;22.680;2023-02-03T10:26:15;99590.20;;;3.20
70050;BMP180;57391;51.306;22.680;2023-02-03T10:31:46;99580.20;;;3.20
70050;BMP180;57391;51.306;22.680;2023-02-03T10:34:16;99581.20;;;3.10
70050;BMP180;57391;51.306;22.680;2023-02-03T10:36:57;99576.20;;;3.00
70050;BMP180;57391;51.306;22.680;2023-02-03T10:39:30;99573.60;;;2.90
70050;BMP180;57391;51.306;22.680;2023-02-03T10:42:02;99569.80;;;2.90
70050;BMP180;57391;51.306;22.680;2023-02-03T10:44:48;99552.60;;;2.90
70050;BMP180;57391;51.306;22.680;2023-02-03T10:47:34;99552.60;;;2.82
70050;BMP180;57391;51.306;22.680;2023-02-03T10:50:25;99539.60;;;2.80
70050;BMP180;57391;51.306;22.680;2023-02-03T10:53:20;99532.80;;;2.70
70050;BMP180;57391;51.306;22.680;2023-02-03T10:56:03;99523.20;;;2.60
70050;BMP180;57391;51.306;22.680;2023-02-03T10:58:32;99518.80;;;2.60
70050;BMP180;57391;51.306;22.680;2023-02-03T11:01:16;99511.20;;;2.60
70050;BMP180;57391;51.306;22.680;2023-02-03T11:04:01;99496.60;;;2.60
70050;BMP180;57391;51.306;22.680;2023-02-03T11:06:33;99493.00;;;2.60
70050;BMP180;57391;51.306;22.680;2023-02-03T11:09:00;99486.60;;;2.68
70050;BMP180;57391;51.306;22.680;2023-02-03T11:11:31;99476.00;;;2.60
70050;BMP180;57391;51.306;22.680;2023-02-03T11:16:33;99469.00;;;2.62
70050;BMP180;57391;51.306;22.680;2023-02-03T11:19:01;99469.60;;;2.60
70050;BMP180;57391;51.306;22.680;2023-02-03T11:24:25;99460.00;;;2.64
70050;BMP180;57391;51.306;22.680;2023-02-03T11:26:59;99456.20;;;2.70
70050;BMP180;57391;51.306;22.680;2023-02-03T11:29:36;99446.00;;;2.60
70050;BMP180;57391;51.306;22.680;2023-02-03T11:32:32;99445.40;;;2.62
70050;BMP180;57391;51.306;22.680;2023-02-03T11:35:04;99442.40;;;2.60
70050;BMP180;57391;51.306;22.680;2023-02-03T11:37:45;99437.20;;;2.60
70050;BMP180;57391;51.306;22.680;2023-02-03T11:48:19;99403.80;;;2.60
70050;BMP180;57391;51.306;22.680;2023-02-03T11:56:30;99373.00;;;2.50
70050;BMP180;57391;51.306;22.680;2023-02-03T12:05:25;99358.20;;;2.40
70050;BMP180;57391;51.306;22.680;2023-02-03T12:08:25;99355.00;;;2.40
70050;BMP180;57391;51.306;22.680;2023-02-03T12:19:54;99324.60;;;2.40
70050;BMP180;57391;51.306;22.680;2023-02-03T12:25:29;99296.00;;;2.20
70050;BMP180;57391;51.306;22.680;2023-02-03T12:34:16;99270.60;;;2.40
70050;BMP180;57391;51.306;22.680;2023-02-03T12:37:12;99255.00;;;2.52
70050;BMP180;57391;51.306;22.680;2023-02-03T12:39:49;99251.40;;;2.60
70050;BMP180;57391;51.306;22.680;2023-02-03T12:42:24;99241.20;;;2.64
70050;BMP180;57391;51.306;22.680;2023-02-03T12:45:12;99227.40;;;2.70
70050;BMP180;57391;51.306;22.680;2023-02-03T12:47:57;99221.40;;;2.72
70050;BMP180;57391;51.306;22.680;2023-02-03T12:50:49;99208.40;;;2.70
70050;BMP180;57391;51.306;22.680;2023-02-03T12:53:32;99201.20;;;2.80
70050;BMP180;57391;51.306;22.680;2023-02-03T12:56:11;99197.20;;;2.80
70050;BMP180;57391;51.306;22.680;2023-02-03T12:58:54;99193.60;;;2.80
70050;BMP180;57391;51.306;22.680;2023-02-03T13:01:33;99189.80;;;2.78
70050;BMP180;57391;51.306;22.680;2023-02-03T13:04:20;99181.60;;;2.72
70050;BMP180;57391;51.306;22.680;2023-02-03T13:07:07;99173.20;;;2.80
70050;BMP180;57391;51.306;22.680;2023-02-03T13:09:54;99172.00;;;2.80
70050;BMP180;57391;51.306;22.680;2023-02-03T13:12:38;99161.60;;;2.80
70050;BMP180;57391;51.306;22.680;2023-02-03T13:15:42;99156.40;;;2.74
70050;BMP180;57391;51.306;22.680;2023-02-03T13:18:34;99152.00;;;2.62
70050;BMP180;57391;51.306;22.680;2023-02-03T13:21:03;99141.80;;;2.60
70050;BMP180;57391;51.306;22.680;2023-02-03T13:23:31;99133.00;;;2.50
70050;BMP180;57391;51.306;22.680;2023-02-03T13:43:11;99079.40;;;2.10
70050;BMP180;57391;51.306;22.680;2023-02-03T13:45:45;99081.40;;;2.10
70050;BMP180;57391;51.306;22.680;2023-02-03T13:48:25;99072.80;;;2.00
70050;BMP180;57391;51.306;22.680;2023-02-03T13:51:13;99073.00;;;2.00
70050;BMP180;57391;51.306;22.680;2023-02-03T13:53:44;99069.20;;;1.96
70050;BMP180;57391;51.306;22.680;2023-02-03T13:56:24;99068.40;;;1.92
70050;BMP180;57391;51.306;22.680;2023-02-03T14:01:42;99053.60;;;1.90
70050;BMP180;57391;51.306;22.680;2023-02-03T14:07:03;99037.00;;;1.90
70050;BMP180;57391;51.306;22.680;2023-02-03T14:12:20;99037.60;;;1.84
70050;BMP180;57391;51.306;22.680;2023-02-03T14:15:00;99024.20;;;1.80
70050;BMP180;57391;51.306;22.680;2023-02-03T14:20:03;99016.80;;;1.80
70050;BMP180;57391;51.306;22.680;2023-02-03T14:22:32;99010.20;;;1.80
70050;BMP180;57391;51.306;22.680;2023-02-03T14:25:04;99009.60;;;1.72
70050;BMP180;57391;51.306;22.680;2023-02-03T14:27:34;99004.60;;;1.70
70050;BMP180;57391;51.306;22.680;2023-02-03T14:30:14;98988.40;;;1.70
70050;BMP180;57391;51.306;22.680;2023-02-03T14:32:54;98981.60;;;1.70
70050;BMP180;57391;51.306;22.680;2023-02-03T14:35:32;98981.60;;;1.70
70050;BMP180;57391;51.306;22.680;2023-02-03T14:38:03;98973.60;;;1.70
70050;BMP180;57391;51.306;22.680;2023-02-03T14:41:01;98967.80;;;1.68
70050;BMP180;57391;51.306;22.680;2023-02-03T14:44:07;98956.60;;;1.70
70050;BMP180;57391;51.306;22.680;2023-02-03T14:52:41;98918.40;;;1.62
70050;BMP180;57391;51.306;22.680;2023-02-03T14:55:31;98906.60;;;1.60
70050;BMP180;57391;51.306;22.680;2023-02-03T14:58:06;98908.80;;;1.60
70050;BMP180;57391;51.306;22.680;2023-02-03T15:00:39;98908.20;;;1.60
70050;BMP180;57391;51.306;22.680;2023-02-03T15:05:49;98900.80;;;1.60
70050;BMP180;57391;51.306;22.680;2023-02-03T15:08:42;98895.20;;;1.60
70050;BMP180;57391;51.306;22.680;2023-02-03T15:11:32;98885.80;;;1.60
70050;BMP180;57391;51.306;22.680;2023-02-03T15:14:28;98877.80;;;1.52
70050;BMP180;57391;51.306;22.680;2023-02-03T15:17:02;98871.60;;;1.50
70050;BMP180;57391;51.306;22.680;2023-02-03T15:19:38;98868.20;;;1.50
70050;BMP180;57391;51.306;22.680;2023-02-03T15:22:27;98860.40;;;1.50
70050;BMP180;57391;51.306;22.680;2023-02-03T15:25:00;98857.20;;;1.50
70050;BMP180;57391;51.306;22.680;2023-02-03T15:27:31;98858.40;;;1.50
70050;BMP180;57391;51.306;22.680;2023-02-03T15:30:26;98855.20;;;1.50
70050;BMP180;57391;51.306;22.680;2023-02-03T15:33:05;98848.00;;;1.50
70050;BMP180;57391;51.306;22.680;2023-02-03T15:35:37;98847.40;;;1.50
70050;BMP180;57391;51.306;22.680;2023-02-03T15:38:13;98850.00;;;1.50
70050;BMP180;57391;51.306;22.680;2023-02-03T15:40:49;98843.60;;;1.50
70050;BMP180;57391;51.306;22.680;2023-02-03T15:51:34;98829.00;;;1.50
70050;BMP180;57391;51.306;22.680;2023-02-03T15:54:37;98829.00;;;1.50
70050;BMP180;57391;51.306;22.680;2023-02-03T15:57:19;98824.20;;;1.40
70050;BMP180;57391;51.306;22.680;2023-02-03T16:00:01;98820.40;;;1.40
70050;BMP180;57391;51.306;22.680;2023-02-03T16:02:44;98816.00;;;1.40
70050;BMP180;57391;51.306;22.680;2023-02-03T16:05:26;98812.00;;;1.40
70050;BMP180;57391;51.306;22.680;2023-02-03T16:07:55;98805.40;;;1.40
70050;BMP180;57391;51.306;22.680;2023-02-03T16:10:33;98799.40;;;1.40
70050;BMP180;57391;51.306;22.680;2023-02-03T16:13:22;98793.00;;;1.40
70050;BMP180;57391;51.306;22.680;2023-02-03T16:16:04;98789.60;;;1.40
70050;BMP180;57391;51.306;22.680;2023-02-03T16:18:35;98780.60;;;1.40
70050;BMP180;57391;51.306;22.680;2023-02-03T16:21:04;98781.40;;;1.40
70050;BMP180;57391;51.306;22.680;2023-02-03T16:23:31;98781.20;;;1.40
70050;BMP180;57391;51.306;22.680;2023-02-03T16:26:06;98775.40;;;1.40
70050;BMP180;57391;51.306;22.680;2023-02-03T16:28:33;98781.40;;;1.40
70050;BMP180;57391;51.306;22.680;2023-02-03T16:31:20;98780.80;;;1.40
70050;BMP180;57391;51.306;22.680;2023-02-03T16:34:17;98775.00;;;1.40
70050;BMP180;57391;51.306;22.680;2023-02-03T16:37:34;98772.20;;;1.40
70050;BMP180;57391;51.306;22.680;2023-02-03T16:40:28;98765.00;;;1.40
70050;BMP180;57391;51.306;22.680;2023-02-03T16:43:15;98757.40;;;1.40
70050;BMP180;57391;51.306;22.680;2023-02-03T16:46:01;98757.20;;;1.40
70050;BMP180;57391;51.306;22.680;2023-02-03T16:48:46;98751.80;;;1.38
70050;BMP180;57391;51.306;22.680;2023-02-03T16:51:38;98747.80;;;1.30
70050;BMP180;57391;51.306;22.680;2023-02-03T16:54:11;98744.40;;;1.30
70050;BMP180;57391;51.306;22.680;2023-02-03T16:56:41;98745.20;;;1.20
70050;BMP180;57391;51.306;22.680;2023-02-03T16:59:09;98744.60;;;1.20
70050;BMP180;57391;51.306;22.680;2023-02-03T17:01:36;98744.40;;;1.20
70050;BMP180;57391;51.306;22.680;2023-02-03T17:04:04;98736.00;;;1.14
70050;BMP180;57391;51.306;22.680;2023-02-03T17:06:31;98733.20;;;1.10
70050;BMP180;57391;51.306;22.680;2023-02-03T17:08:59;98730.40;;;1.10
70050;BMP180;57391;51.306;22.680;2023-02-03T17:11:26;98727.20;;;1.10
70050;BMP180;57391;51.306;22.680;2023-02-03T17:13:54;98724.00;;;1.10
70050;BMP180;57391;51.306;22.680;2023-02-03T17:16:25;98718.20;;;1.00
70050;BMP180;57391;51.306;22.680;2023-02-03T17:18:53;98712.80;;;1.00
70050;BMP180;57391;51.306;22.680;2023-02-03T17:21:27;98702.60;;;0.92